x

Fowey Rock, Fl (fwyf1) Weather Station

8:00pm - Tue 19th Jun 2018 All times are EDT. -4 hours from GMT.

  • Wind
    15mph, 16mph gusts
  • Sea Temp 85°f
  • Air Temp 82°f
  • Sea Pressure 1015.3mb
  • Fowey Rock, Fl
  • Fowey Rock, Fl

More Historic Weather Station data

Upgrade to MSW Pro to gain access to the past 30 days of data for over 8000 Wavebouys and Weather Stations around the globe.

Join

Comparision Forecast

View Surf forecast
   
Tue 06/19 8:00pm 15 16 mph 1015.3mb 85f 82f
7:00pm 15 17 mph 1015.2mb 85f 82f
6:00pm 11 13 mph 1015mb 85f 82f
5:00pm 13 14 mph 1015.3mb 84f 82f
4:00pm 16 17 mph 1015.4mb 84f 82f
3:00pm 14 15 mph 1016.2mb 84f 82f
2:00pm 18 18 mph 1016.5mb 84f 82f
1:00pm 9 10 mph 1017mb 84f 82f
12:00pm 11 13 mph 1017.7mb 84f 81f
11:00am 6 7 mph 1017.8mb 84f 82f
10:00am 7 8 mph 1017.7mb 83f 82f
9:00am 8 8 mph 1017.7mb 83f 82f
8:00am 7 8 mph 1017.8mb 83f 82f
7:00am 5 6 mph 1017.1mb 83f 82f
6:00am 8 8 mph 1016.8mb 83f 81f
5:00am 7 8 mph 1016.4mb 83f 81f
4:00am 6 7 mph 1016.1mb 83f 81f
3:00am 6 6 mph 1016.2mb 83f 82f
2:00am 7 8 mph 1017mb 83f 82f
1:00am 7 8 mph 1017.7mb 83f 82f
12:00am 8 9 mph 1018.4mb 84f 82f
Mon 06/18 11:00pm 8 9 mph 1018.2mb 84f 82f
10:00pm 9 10 mph 1018mb 84f 82f
9:00pm 10 11 mph 1017.7mb 84f 82f
8:00pm 9 9 mph 1017.8mb 84f 82f
7:00pm 9 10 mph 1017.5mb 84f 83f
6:00pm 11 13 mph 1017.5mb 84f 83f
5:00pm 8 10 mph 1018.2mb 84f 83f
4:00pm 13 13 mph 1018.5mb 83f 83f
3:00pm 14 15 mph 1018.8mb 83f 83f
2:00pm 13 13 mph 1019.2mb 83f 83f
1:00pm 13 14 mph 1019.8mb 83f 83f
12:00pm 11 13 mph 1020.1mb 83f 83f
11:00am 11 13 mph 1020.2mb 83f 83f
10:00am 10 11 mph 1020mb 83f 83f
9:00am 6 7 mph 1019.9mb 83f 83f
8:00am 7 7 mph 1019.5mb 83f 83f
7:00am 2 3 mph 1018.9mb 83f 82f
6:00am 5 6 mph 1018.6mb 83f 82f
5:00am 8 8 mph 1018.1mb 83f 82f
4:00am 8 9 mph 1018mb 83f 82f
3:00am 6 6 mph 1018.4mb 83f 82f
2:00am 9 10 mph 1019mb 83f 82f
1:00am 9 10 mph 1019.5mb 83f 82f
12:00am 11 14 mph 1019.9mb 83f 82f
Sun 06/17 11:00pm 11 13 mph 1019.8mb 83f 83f
10:00pm 14 15 mph 1019.3mb 83f 82f
9:00pm 14 15 mph 1019.5mb 83f 83f
8:00pm 16 16 mph 1018.7mb 83f 83f
7:00pm 14 14 mph 1018.6mb 83f 83f
6:00pm 9 10 mph 1018.7mb 83f 83f
5:00pm 13 14 mph 1019mb 83f 83f
4:00pm 13 14 mph 1019.1mb 83f 83f
3:00pm 7 7 mph 1019.6mb 83f 83f
2:00pm 7 7 mph 1019.9mb 83f 83f
1:00pm 7 7 mph 1020.6mb 83f 83f
12:00pm 7 8 mph 1020.8mb 83f 83f
11:00am 3 5 mph 1020.8mb 83f 83f
10:00am 2 3 mph 1020.5mb 83f 83f
9:00am 5 5 mph 1020.1mb 83f 83f
8:00am 3 5 mph 1019.8mb 83f 83f
7:00am 6 7 mph 1019.3mb 83f 82f
6:00am 6 6 mph 1018.8mb 83f 82f
5:00am 6 6 mph 1018.2mb 83f 82f
4:00am 8 9 mph 1018.1mb 83f 82f
3:00am 6 7 mph 1018.2mb 82f 82f
2:00am 9 10 mph 1018.6mb 82f 82f
1:00am 9 10 mph 1019mb 82f 83f
12:00am 9 9 mph 1019.4mb 83f 83f
Sat 06/16 11:00pm 10 11 mph 1019.2mb 83f 83f
10:00pm 13 13 mph 1018.8mb 83f 83f
9:00pm 14 14 mph 1018.2mb 83f 83f
8:00pm 14 15 mph 1018mb 84f 84f
7:00pm 11 13 mph 1018mb 84f 83f
6:00pm 9 10 mph 1017.4mb 84f 83f
5:00pm 6 6 mph 1017.6mb 84f 83f
4:00pm 8 8 mph 1017.5mb 84f 83f
3:00pm 5 6 mph 1018.7mb 84f 83f
2:00pm 8 9 mph 1018.7mb 84f 83f
1:00pm 7 8 mph 1019.2mb 83f 83f
12:00pm 7 8 mph 1019.6mb 83f 83f
11:00am 6 6 mph 1019.7mb 83f 83f
10:00am 7 7 mph 1019.3mb 83f 83f
9:00am 6 6 mph 1018.8mb 83f 83f
8:00am 5 6 mph 1018.3mb 84f 83f
7:00am 5 6 mph 1017.8mb 84f 82f
6:00am 8 8 mph 1017.9mb 84f 82f
5:00am 5 6 mph 1017.5mb 84f 81f
4:00am 9 10 mph 1017.3mb 84f 82f
3:00am 7 7 mph 1016.9mb 83f 82f
2:00am 6 7 mph 1017.8mb 83f 81f